Time;durP1;ratioP1;P1;durP2;ratioP2;P2;SDS_P1;SDS_P2;PMS_P1;PMS_P2;Temp;Humidity;BMP_temperature;BMP_pressure;BME280_temperature;BME280_humidity;BME280_pressure;Samples;Min_cycle;Max_cycle;Signal;HPM_P1;HPM_P2
2024/02/28 00:00:00;;;;;;;88.32;19.13;;;;;;;9.20;47.01;101783.06;4908295;29;20035;-63
2024/02/28 00:02:25;;;;;;;91.15;20.83;;;;;;;9.19;47.42;101784.88;4924850;29;20210;-63
2024/02/28 00:04:51;;;;;;;72.28;17.70;;;;;;;9.17;46.69;101780.56;4924693;29;20544;-63
2024/02/28 00:07:17;;;;;;;84.43;17.88;;;;;;;9.15;47.16;101785.16;4912297;29;20114;-63
2024/02/28 00:09:42;;;;;;;47.22;15.85;;;;;;;9.13;47.60;101787.06;4929387;29;20036;-63
2024/02/28 00:12:08;;;;;;;89.65;20.38;;;;;;;9.07;47.04;101780.28;4926746;29;20123;-63
2024/02/28 00:14:33;;;;;;;105.68;19.30;;;;;;;9.09;47.23;101774.84;4921234;29;20095;-63
2024/02/28 00:16:58;;;;;;;154.68;22.42;;;;;;;9.08;47.15;101782.00;4902750;29;20064;-63
2024/02/28 00:19:25;;;;;;;120.20;21.73;;;;;;;9.07;47.42;101790.13;4919926;29;20107;-63
2024/02/28 00:21:50;;;;;;;138.02;20.05;;;;;;;9.05;47.31;101781.34;4918689;29;20047;-63
2024/02/28 00:24:15;;;;;;;93.38;19.40;;;;;;;9.03;46.92;101772.56;4902496;29;20044;-63
2024/02/28 00:26:42;;;;;;;168.48;22.55;;;;;;;8.98;47.39;101763.97;4902740;29;20070;-63
2024/02/28 00:29:08;;;;;;;125.72;19.70;;;;;;;8.99;47.51;101776.41;4919783;29;20038;-63
2024/02/28 00:31:33;;;;;;;142.25;22.35;;;;;;;8.98;47.48;101772.00;4918496;29;20411;-63
2024/02/28 00:33:59;;;;;;;90.30;18.33;;;;;;;8.96;46.97;101781.94;4917951;29;20052;-63
2024/02/28 00:36:24;;;;;;;43.85;14.93;;;;;;;8.90;47.83;101782.31;4919429;29;20492;-63
2024/02/28 00:38:49;;;;;;;37.72;13.60;;;;;;;8.90;47.34;101790.31;4918246;29;20044;-63
2024/02/28 00:41:15;;;;;;;33.88;15.07;;;;;;;8.93;47.53;101806.16;4902514;29;20032;-63
2024/02/28 00:43:40;;;;;;;30.08;14.45;;;;;;;8.90;47.60;101799.19;4918248;29;20072;-63
2024/02/28 00:46:11;;;;;;;30.85;12.88;;;;;;;8.92;47.44;101799.09;4919488;29;20040;-63
2024/02/28 00:48:36;;;;;;;30.17;14.35;;;;;;;8.92;46.83;101797.28;4938469;28;20643;-63
2024/02/28 00:51:02;;;;;;;29.35;13.90;;;;;;;8.93;47.54;101800.81;4937108;29;20039;-63
2024/02/28 00:53:27;;;;;;;36.28;13.55;;;;;;;8.89;47.38;101791.25;4937983;28;20043;-63
2024/02/28 00:55:52;;;;;;;32.95;13.65;;;;;;;8.92;47.30;101797.28;4937284;29;20046;-63
2024/02/28 00:58:18;;;;;;;37.70;15.10;;;;;;;8.92;47.06;101801.75;4937001;29;20046;-63
2024/02/28 01:00:43;;;;;;;42.97;16.05;;;;;;;8.88;46.73;101800.25;4936917;29;20118;-63
2024/02/28 01:03:10;;;;;;;40.78;15.80;;;;;;;8.86;47.22;101807.47;4936719;29;20035;-63
2024/02/28 01:05:36;;;;;;;40.55;16.42;;;;;;;8.82;46.99;101805.97;4936956;29;20036;-63
2024/02/28 01:08:01;;;;;;;43.40;16.65;;;;;;;8.77;47.17;101804.41;4939730;29;20110;-63
2024/02/28 01:10:27;;;;;;;28.58;13.00;;;;;;;8.75;46.95;101803.66;4940080;29;20063;-63
2024/02/28 01:12:52;;;;;;;30.48;13.70;;;;;;;8.75;47.04;101811.69;4938733;29;20499;-63
2024/02/28 01:15:18;;;;;;;32.03;14.05;;;;;;;8.74;47.82;101809.94;4936592;29;20123;-63
2024/02/28 01:17:43;;;;;;;33.35;14.02;;;;;;;8.76;47.07;101807.19;4935966;29;20048;-63
2024/02/28 01:20:09;;;;;;;43.90;16.30;;;;;;;8.78;47.27;101811.50;4936900;29;20519;-63
2024/02/28 01:22:35;;;;;;;43.72;16.42;;;;;;;8.81;47.36;101809.56;4937707;29;20044;-63
2024/02/28 01:25:02;;;;;;;41.88;17.23;;;;;;;8.83;47.91;101802.31;4920691;29;20036;-63
2024/02/28 01:27:28;;;;;;;54.13;18.20;;;;;;;8.88;47.63;101803.75;4920751;29;20047;-63
2024/02/28 01:29:53;;;;;;;51.75;19.17;;;;;;;8.93;47.82;101798.16;4936508;29;20036;-63
2024/02/28 01:32:19;;;;;;;41.50;18.45;;;;;;;8.97;47.50;101797.84;4936341;29;20144;-63
2024/02/28 01:34:45;;;;;;;47.88;17.42;;;;;;;8.98;47.64;101791.56;4936145;29;20099;-63
2024/02/28 01:37:11;;;;;;;47.83;18.60;;;;;;;9.02;47.55;101781.53;4936275;29;20036;-63
2024/02/28 01:39:36;;;;;;;49.63;18.98;;;;;;;9.06;47.88;101783.06;4937533;29;20039;-63
2024/02/28 01:42:02;;;;;;;52.58;19.67;;;;;;;9.10;47.29;101784.59;4936319;29;20106;-63
2024/02/28 01:44:28;;;;;;;49.88;17.95;;;;;;;9.15;47.45;101787.84;4936173;29;20504;-63
2024/02/28 01:46:56;;;;;;;70.22;22.25;;;;;;;9.16;47.73;101785.06;4937330;29;20032;-63
2024/02/28 01:49:21;;;;;;;56.20;22.15;;;;;;;9.16;48.38;101795.75;4935893;29;20492;-63
2024/02/28 01:51:46;;;;;;;63.95;22.98;;;;;;;9.24;48.14;101793.44;4936059;29;20113;-63
2024/02/28 01:54:12;;;;;;;59.53;21.75;;;;;;;9.33;48.59;101782.19;4935931;29;20035;-63
2024/02/28 01:56:38;;;;;;;62.80;24.20;;;;;;;9.45;48.40;101791.22;4935948;29;20046;-62
2024/02/28 01:59:03;;;;;;;55.70;21.92;;;;;;;9.55;48.16;101788.84;4935947;29;20494;-63
2024/02/28 02:01:29;;;;;;;60.22;23.92;;;;;;;9.64;48.73;101790.88;4935995;29;20491;-63
2024/02/28 02:03:54;;;;;;;67.28;23.08;;;;;;;9.73;48.47;101791.16;4920010;29;20032;-64
2024/02/28 02:06:20;;;;;;;61.75;23.23;;;;;;;9.81;48.73;101788.84;4935691;29;20039;-63
2024/02/28 02:08:46;;;;;;;65.38;22.02;;;;;;;9.86;48.61;101789.38;4935699;29;20106;-63
2024/02/28 02:11:12;;;;;;;59.55;23.15;;;;;;;9.92;48.52;101789.00;4936937;29;20040;-63
2024/02/28 02:13:49;;;;;;;67.30;23.77;;;;;;;9.98;48.53;101786.88;4919632;29;20471;-63
2024/02/28 02:16:14;;;;;;;62.85;22.42;;;;;;;9.99;48.31;101780.56;4935585;29;20047;-63
2024/02/28 02:18:39;;;;;;;72.90;23.33;;;;;;;10.01;48.04;101775.97;4936713;29;20038;-63
2024/02/28 02:21:06;;;;;;;65.38;21.55;;;;;;;10.08;48.41;101780.78;4935275;28;20036;-64
2024/02/28 02:23:32;;;;;;;62.75;22.20;;;;;;;10.13;48.72;101775.19;4935744;29;20110;-63
2024/02/28 02:25:57;;;;;;;82.78;22.67;;;;;;;10.17;48.75;101769.50;4919626;29;20108;-63
2024/02/28 02:28:23;;;;;;;67.22;21.75;;;;;;;10.17;48.68;101768.63;4935523;29;20023;-63
2024/02/28 02:30:48;;;;;;;65.07;21.73;;;;;;;10.23;49.14;101774.44;4919352;29;20027;-63
2024/02/28 02:33:14;;;;;;;67.43;23.80;;;;;;;10.27;48.74;101786.66;4935345;29;20035;-63
2024/02/28 02:35:39;;;;;;;66.63;21.25;;;;;;;10.28;48.72;101782.16;4936317;28;20056;-63
2024/02/28 02:38:05;;;;;;;68.75;21.92;;;;;;;10.27;49.10;101780.47;4936329;29;20141;-63
2024/02/28 02:40:30;;;;;;;127.03;23.88;;;;;;;10.33;49.41;101801.47;4936327;29;20027;-63
2024/02/28 02:42:55;;;;;;;90.72;22.75;;;;;;;10.33;49.06;101796.13;4935352;29;20128;-63
2024/02/28 02:45:21;;;;;;;55.92;20.83;;;;;;;10.36;48.58;101798.56;4936329;29;20036;-63
2024/02/28 02:47:46;;;;;;;74.97;20.33;;;;;;;10.35;49.22;101796.88;4936354;29;20071;-65
2024/02/28 02:50:12;;;;;;;63.05;19.05;;;;;;;10.37;49.25;101797.63;4935155;28;20031;-66
2024/02/28 02:52:37;;;;;;;65.70;19.90;;;;;;;10.38;49.18;101799.34;4935052;29;20082;-65
2024/02/28 02:55:03;;;;;;;65.25;23.17;;;;;;;10.37;48.73;101797.63;4936373;29;20124;-65
2024/02/28 02:57:30;;;;;;;64.95;20.65;;;;;;;10.40;49.38;101800.09;4936289;29;20031;-65
2024/02/28 02:59:56;;;;;;;62.30;20.80;;;;;;;10.39;49.08;101806.38;4935259;29;20058;-65
2024/02/28 03:02:21;;;;;;;65.55;20.00;;;;;;;10.40;49.30;101792.03;4934752;28;20050;-65
2024/02/28 03:04:46;;;;;;;55.60;19.65;;;;;;;10.41;49.43;101794.59;4934857;29;20523;-66
2024/02/28 03:07:12;;;;;;;88.55;21.52;;;;;;;10.45;48.89;101797.94;4934770;29;20030;-65
2024/02/28 03:09:37;;;;;;;71.30;22.98;;;;;;;10.48;49.14;101806.63;4934955;29;20077;-66
2024/02/28 03:12:03;;;;;;;70.32;21.73;;;;;;;10.44;48.88;101796.25;4919003;29;20027;-65
2024/02/28 03:14:28;;;;;;;78.85;22.20;;;;;;;10.43;50.02;101803.41;4934619;29;20028;-66
2024/02/28 03:16:53;;;;;;;89.15;21.75;;;;;;;10.46;49.06;101802.34;4934548;29;20024;-65
2024/02/28 03:19:20;;;;;;;53.65;19.17;;;;;;;10.41;49.63;101793.78;4934579;29;20078;-65
2024/02/28 03:21:45;;;;;;;131.13;23.83;;;;;;;10.40;49.26;101802.75;4934775;28;20027;-65
2024/02/28 03:24:11;;;;;;;122.80;21.08;;;;;;;10.38;48.75;101818.09;4918748;29;20043;-65
2024/02/28 03:26:36;;;;;;;86.90;21.38;;;;;;;10.36;49.75;101828.88;4934805;29;20040;-66
2024/02/28 03:29:02;;;;;;;62.47;19.60;;;;;;;10.36;49.19;101810.13;4934860;29;20039;-65
2024/02/28 03:31:28;;;;;;;176.43;23.98;;;;;;;10.30;49.32;101817.75;4934837;29;20487;-65
2024/02/28 03:33:53;;;;;;;78.75;20.42;;;;;;;10.26;49.13;101811.72;4935280;29;20047;-66
2024/02/28 03:36:19;;;;;;;86.75;20.33;;;;;;;10.26;48.90;101826.94;4934446;29;20028;-65
2024/02/28 03:38:44;;;;;;;88.68;19.80;;;;;;;10.22;49.50;101831.63;4935752;29;20114;-65
2024/02/28 03:41:10;;;;;;;83.30;21.00;;;;;;;10.21;48.83;101834.41;4938496;29;20032;-65
2024/02/28 03:43:35;;;;;;;70.35;21.90;;;;;;;10.23;49.23;101837.84;4939578;29;20055;-66
2024/02/28 03:46:01;;;;;;;61.97;18.50;;;;;;;10.26;49.69;101837.66;4938575;29;20035;-65
2024/02/28 03:48:26;;;;;;;106.30;22.45;;;;;;;10.24;49.13;101834.22;4938219;29;20102;-66
2024/02/28 03:50:51;;;;;;;66.88;18.52;;;;;;;10.19;49.43;101842.53;4939385;29;20624;-66
2024/02/28 03:53:17;;;;;;;66.63;18.77;;;;;;;10.18;49.61;101831.94;4922405;29;20032;-65
2024/02/28 03:55:44;;;;;;;79.20;18.70;;;;;;;10.19;49.56;101836.34;4939516;29;20028;-66
2024/02/28 03:58:09;;;;;;;55.40;17.48;;;;;;;10.19;49.43;101841.69;4939362;29;20039;-63
2024/02/28 04:00:35;;;;;;;47.15;18.05;;;;;;;10.18;49.49;101831.94;4938092;29;20038;-63
2024/02/28 04:03:01;;;;;;;72.63;17.55;;;;;;;10.16;49.71;101825.84;4937854;29;20388;-63
2024/02/28 04:05:26;;;;;;;73.50;18.38;;;;;;;10.16;49.83;101825.84;4939105;29;20032;-63
2024/02/28 04:07:52;;;;;;;46.25;17.60;;;;;;;10.19;49.44;101821.13;4939223;29;20558;-63
2024/02/28 04:10:18;;;;;;;47.58;17.42;;;;;;;10.20;49.93;101821.97;4922071;29;20539;-64
2024/02/28 04:12:44;;;;;;;55.45;17.77;;;;;;;10.22;49.68;101820.91;4937998;29;20035;-63
2024/02/28 04:15:13;;;;;;;48.60;16.85;;;;;;;10.22;49.45;101828.09;4937776;29;20115;-63
2024/02/28 04:17:39;;;;;;;51.05;16.67;;;;;;;10.27;50.09;101839.38;4921566;29;20036;-63
2024/02/28 04:20:09;;;;;;;66.57;18.52;;;;;;;10.25;49.90;101842.13;4937724;29;20079;-63
2024/02/28 04:22:34;;;;;;;52.45;17.60;;;;;;;10.20;49.80;101844.25;4937732;29;20035;-63
2024/02/28 04:24:59;;;;;;;55.92;17.15;;;;;;;10.25;49.62;101844.81;4939123;29;20091;-63
2024/02/28 04:27:25;;;;;;;43.92;16.42;;;;;;;10.26;49.50;101841.19;4937537;29;20555;-64
2024/02/28 04:29:50;;;;;;;44.80;17.08;;;;;;;10.28;49.23;101841.06;4937488;29;20451;-63
2024/02/28 04:32:16;;;;;;;72.60;16.42;;;;;;;10.27;49.61;101837.53;4937394;29;20059;-64
2024/02/28 04:34:41;;;;;;;68.88;17.65;;;;;;;10.22;49.42;101825.41;4937386;29;20039;-63
2024/02/28 04:37:06;;;;;;;46.58;15.40;;;;;;;10.26;49.80;101837.66;4938413;28;20131;-63
2024/02/28 04:39:32;;;;;;;51.28;16.15;;;;;;;10.27;49.81;101844.72;4937429;29;20119;-64
2024/02/28 04:41:57;;;;;;;54.58;17.17;;;;;;;10.26;49.59;101845.69;4937316;29;20032;-63
2024/02/28 04:44:22;;;;;;;50.47;15.20;;;;;;;10.26;49.56;101848.34;4937247;29;20040;-63
2024/02/28 04:46:48;;;;;;;46.90;15.02;;;;;;;10.23;49.53;101837.84;4938451;29;20487;-63
2024/02/28 04:49:13;;;;;;;51.53;17.67;;;;;;;10.23;49.72;101828.00;4937301;29;20036;-64
2024/02/28 04:51:38;;;;;;;69.15;17.67;;;;;;;10.20;49.53;101827.34;4937145;29;20558;-63
2024/02/28 04:54:04;;;;;;;60.60;17.55;;;;;;;10.22;49.86;101834.31;4938376;29;20432;-63
2024/02/28 04:56:29;;;;;;;45.10;16.25;;;;;;;10.20;49.44;101830.88;4921149;29;20399;-64
2024/02/28 04:58:55;;;;;;;83.60;18.48;;;;;;;10.17;49.50;101840.94;4938223;29;20028;-63
2024/02/28 05:01:20;;;;;;;58.65;19.08;;;;;;;10.13;49.78;101852.81;4920960;29;20086;-63
2024/02/28 05:03:45;;;;;;;46.63;17.77;;;;;;;10.06;50.25;101840.75;4920826;29;20111;-63
2024/02/28 05:06:11;;;;;;;52.20;17.55;;;;;;;10.08;48.97;101844.19;4937973;29;20035;-64
2024/02/28 05:08:38;;;;;;;57.95;17.85;;;;;;;10.10;49.72;101848.50;4937985;29;20047;-63
2024/02/28 05:11:03;;;;;;;45.20;15.80;;;;;;;10.14;50.29;101860.72;4936825;29;20044;-63
2024/02/28 05:13:28;;;;;;;45.03;17.17;;;;;;;10.17;50.02;101870.38;4936822;29;20032;-63
2024/02/28 05:15:54;;;;;;;57.65;17.25;;;;;;;10.20;49.90;101864.81;4935805;29;20495;-63
2024/02/28 05:18:19;;;;;;;54.58;16.80;;;;;;;10.22;49.47;101860.22;4936661;29;20083;-63
2024/02/28 05:20:45;;;;;;;47.88;17.00;;;;;;;10.26;50.30;101859.06;4920850;29;20036;-63
2024/02/28 05:23:10;;;;;;;75.68;17.83;;;;;;;10.25;50.03;101851.97;4920799;29;20039;-63
2024/02/28 05:25:36;;;;;;;57.70;19.23;;;;;;;10.27;49.33;101860.78;4937907;29;20039;-63
2024/02/28 05:28:02;;;;;;;61.53;16.58;;;;;;;10.28;49.71;101852.63;4923572;29;20036;-63
2024/02/28 05:30:27;;;;;;;51.53;15.80;;;;;;;10.25;49.90;101857.34;4924122;29;20036;-63
2024/02/28 05:32:52;;;;;;;56.80;16.85;;;;;;;10.24;49.96;101861.00;4938251;29;20032;-64
2024/02/28 05:35:18;;;;;;;48.25;16.23;;;;;;;10.22;49.68;101860.22;4937577;29;20081;-63
2024/02/28 05:37:46;;;;;;;36.08;14.73;;;;;;;10.21;50.07;101867.41;4920462;29;20559;-63
2024/02/28 05:40:12;;;;;;;43.72;15.30;;;;;;;10.19;49.64;101857.78;4936431;29;20087;-63
2024/02/28 05:42:38;;;;;;;46.03;15.63;;;;;;;10.24;49.90;101866.34;4937257;29;20084;-63
2024/02/28 05:45:04;;;;;;;43.20;15.10;;;;;;;10.26;49.59;101865.28;4936266;29;20051;-63
2024/02/28 05:47:29;;;;;;;45.13;17.17;;;;;;;10.28;49.86;101860.69;4920175;29;20144;-63
2024/02/28 05:49:56;;;;;;;49.40;15.18;;;;;;;10.33;49.73;101865.75;4937442;29;20518;-63
2024/02/28 05:52:21;;;;;;;48.65;17.15;;;;;;;10.33;49.64;101876.47;4936178;29;20502;-63
2024/02/28 05:54:48;;;;;;;46.70;14.63;;;;;;;10.35;49.57;101879.88;4920143;29;20032;-64
2024/02/28 05:57:13;;;;;;;53.67;16.38;;;;;;;10.36;49.83;101879.75;4935976;29;20123;-63
2024/02/28 05:59:38;;;;;;;53.55;15.48;;;;;;;10.40;49.20;101888.47;4935770;29;20060;-63
2024/02/28 06:02:04;;;;;;;50.83;16.88;;;;;;;10.41;49.90;101895.56;4935594;29;20036;-64
2024/02/28 06:04:29;;;;;;;49.97;14.75;;;;;;;10.43;49.71;101893.63;4935814;29;20046;-63
2024/02/28 06:06:55;;;;;;;44.15;15.05;;;;;;;10.39;49.65;101897.44;4935893;29;20032;-63
2024/02/28 06:09:21;;;;;;;45.60;16.98;;;;;;;10.36;49.46;101892.28;4936844;29;20091;-63
2024/02/28 06:11:46;;;;;;;38.45;13.88;;;;;;;10.37;49.71;101905.59;4935618;29;20036;-63
2024/02/28 06:14:11;;;;;;;43.60;15.73;;;;;;;10.37;50.32;101899.38;4919841;29;20403;-63
2024/02/28 06:16:37;;;;;;;45.70;14.52;;;;;;;10.39;50.35;101903.66;4920111;29;20039;-63
2024/02/28 06:19:02;;;;;;;43.42;13.77;;;;;;;10.38;49.86;101906.47;4935481;29;20043;-63
2024/02/28 06:21:29;;;;;;;50.95;16.35;;;;;;;10.42;50.48;101907.97;4936873;29;20403;-64
2024/02/28 06:23:54;;;;;;;50.78;14.25;;;;;;;10.45;49.44;101913.97;4935596;29;20071;-64
2024/02/28 06:26:20;;;;;;;40.78;13.63;;;;;;;10.47;49.84;101920.09;4935523;29;20051;-63
2024/02/28 06:28:46;;;;;;;46.72;16.30;;;;;;;10.46;50.14;101917.53;4919724;29;20063;-63
2024/02/28 06:31:16;;;;;;;48.38;15.18;;;;;;;10.49;49.83;101915.50;4919729;29;20039;-63
2024/02/28 06:33:41;;;;;;;36.80;14.60;;;;;;;10.49;50.03;101920.00;4935228;29;20075;-63
2024/02/28 06:36:07;;;;;;;42.17;15.93;;;;;;;10.50;50.12;101921.69;4935671;29;20047;-64
2024/02/28 06:38:32;;;;;;;43.45;14.32;;;;;;;10.51;50.06;101918.06;4934964;29;20149;-64
2024/02/28 06:40:57;;;;;;;47.85;15.00;;;;;;;10.49;49.97;101914.66;4919239;29;20035;-63
2024/02/28 06:43:23;;;;;;;49.58;16.73;;;;;;;10.52;50.66;101919.81;4935047;29;20040;-65
2024/02/28 06:45:48;;;;;;;49.42;15.20;;;;;;;10.52;50.00;101926.00;4934989;29;20032;-65
2024/02/28 06:48:13;;;;;;;46.33;16.58;;;;;;;10.51;50.05;101929.66;4935155;29;20039;-64
2024/02/28 06:50:39;;;;;;;58.15;16.98;;;;;;;10.57;49.92;101935.56;4919193;29;20044;-64
2024/02/28 06:53:04;;;;;;;47.38;16.42;;;;;;;10.56;50.13;101929.34;4934901;29;20506;-64
2024/02/28 06:55:29;;;;;;;56.38;17.00;;;;;;;10.59;49.95;101937.16;4916039;29;20063;-64
2024/02/28 06:57:56;;;;;;;58.85;18.10;;;;;;;10.64;50.82;101937.72;4916921;29;20068;-64
2024/02/28 07:00:22;;;;;;;58.55;18.48;;;;;;;10.64;49.71;101932.34;4915942;29;20036;-64
2024/02/28 07:02:47;;;;;;;62.30;18.13;;;;;;;10.64;49.15;101940.41;4915824;29;20108;-64
2024/02/28 07:05:12;;;;;;;51.28;17.48;;;;;;;10.67;49.92;101945.56;4917025;29;20044;-64
2024/02/28 07:07:38;;;;;;;54.25;18.05;;;;;;;10.67;50.24;101936.66;4917037;29;20028;-64
2024/02/28 07:10:04;;;;;;;63.38;20.65;;;;;;;10.71;50.16;101936.34;4917058;29;20453;-64
2024/02/28 07:12:30;;;;;;;58.83;19.20;;;;;;;10.77;50.44;101935.09;4915712;29;20103;-64
2024/02/28 07:14:55;;;;;;;63.45;20.42;;;;;;;10.81;50.58;101936.59;4915022;29;20520;-64
2024/02/28 07:17:20;;;;;;;64.93;17.42;;;;;;;10.84;50.23;101937.25;4915568;29;20032;-64
2024/02/28 07:19:46;;;;;;;60.13;19.63;;;;;;;10.88;50.13;101937.91;4915778;29;20047;-64
2024/02/28 07:22:11;;;;;;;71.90;20.40;;;;;;;10.94;50.26;101943.69;4899972;29;20032;-63
2024/02/28 07:24:37;;;;;;;66.55;19.45;;;;;;;10.99;49.85;101941.56;4915526;29;20504;-64
2024/02/28 07:27:03;;;;;;;65.38;20.23;;;;;;;11.06;49.98;101950.91;4916807;29;20531;-64
2024/02/28 07:29:28;;;;;;;54.80;20.17;;;;;;;11.09;49.72;101948.00;4915576;29;20036;-64
2024/02/28 07:31:54;;;;;;;67.35;21.83;;;;;;;11.15;50.10;101954.78;4915496;29;20036;-64
2024/02/28 07:34:19;;;;;;;63.40;18.23;;;;;;;11.20;50.01;101960.69;4916488;29;20063;-64
2024/02/28 07:36:45;;;;;;;61.58;19.35;;;;;;;11.24;50.55;101970.25;4915718;29;20036;-63
2024/02/28 07:39:12;;;;;;;69.40;20.77;;;;;;;11.28;49.69;101963.69;4915557;29;20060;-64
2024/02/28 07:41:41;;;;;;;64.90;18.13;;;;;;;11.36;49.76;101977.44;4916619;29;20047;-64
2024/02/28 07:44:08;;;;;;;65.65;19.20;;;;;;;11.41;50.23;101974.44;4915273;29;20575;-64
2024/02/28 07:46:34;;;;;;;59.58;18.75;;;;;;;11.47;50.28;101987.44;4915379;29;20068;-64
2024/02/28 07:49:00;;;;;;;57.80;19.00;;;;;;;11.51;49.67;101989.78;4915490;29;20040;-63
2024/02/28 07:51:26;;;;;;;61.35;18.83;;;;;;;11.56;49.59;101994.81;4916652;29;20047;-63
2024/02/28 07:53:51;;;;;;;54.88;18.98;;;;;;;11.54;50.57;101992.25;4915201;29;20040;-64
2024/02/28 07:56:18;;;;;;;53.45;17.23;;;;;;;11.60;49.47;101982.94;4916659;29;20048;-64
2024/02/28 07:58:43;;;;;;;60.10;17.45;;;;;;;11.58;50.38;101980.38;4915089;29;20464;-64
2024/02/28 08:01:09;;;;;;;48.72;17.27;;;;;;;11.63;50.24;101980.03;4916506;29;20040;-64
2024/02/28 08:03:35;;;;;;;51.42;18.63;;;;;;;11.64;49.92;101979.06;4916570;29;20072;-64
2024/02/28 08:06:00;;;;;;;63.50;17.20;;;;;;;11.65;49.68;101980.78;4915152;29;20071;-64
2024/02/28 08:08:25;;;;;;;55.60;17.50;;;;;;;11.77;49.07;101981.78;4916406;29;20452;-63
2024/02/28 08:10:52;;;;;;;52.05;17.75;;;;;;;11.84;50.13;101975.84;4916338;29;20068;-63
2024/02/28 08:13:18;;;;;;;53.55;18.25;;;;;;;11.90;49.56;101967.38;4916325;29;20051;-64
2024/02/28 08:15:43;;;;;;;56.97;18.02;;;;;;;11.99;49.66;101966.72;4899330;29;20412;-64
2024/02/28 08:18:10;;;;;;;56.85;17.15;;;;;;;12.18;50.33;101977.84;4899107;29;20033;-64
2024/02/28 08:20:37;;;;;;;52.40;17.55;;;;;;;12.36;49.03;101974.78;4916364;29;20042;-64
2024/02/28 08:23:03;;;;;;;50.15;17.52;;;;;;;12.47;49.53;101982.91;4915207;29;20646;-64
2024/02/28 08:25:29;;;;;;;45.33;16.52;;;;;;;12.52;49.24;101980.72;4917372;29;20044;-64
2024/02/28 08:27:54;;;;;;;55.22;18.40;;;;;;;12.67;49.19;101979.63;4918757;29;20038;-64
2024/02/28 08:30:19;;;;;;;49.85;17.80;;;;;;;12.78;49.06;101988.59;4902728;29;20408;-64
2024/02/28 08:32:45;;;;;;;56.00;19.55;;;;;;;12.94;49.48;101990.97;4902496;29;20523;-64
2024/02/28 08:35:10;;;;;;;48.22;17.88;;;;;;;13.10;48.76;101996.94;4919563;29;20056;-64
2024/02/28 08:37:38;;;;;;;49.05;17.63;;;;;;;13.28;48.14;101982.09;4918685;29;20116;-64
2024/02/28 08:40:05;;;;;;;55.00;18.80;;;;;;;13.40;49.66;101986.50;4919543;29;20094;-64
2024/02/28 08:42:30;;;;;;;56.47;18.25;;;;;;;13.55;48.25;101980.91;4918265;29;20083;-65
2024/02/28 08:44:56;;;;;;;59.78;18.75;;;;;;;13.82;49.21;101992.19;4902452;29;20080;-64
2024/02/28 08:47:25;;;;;;;50.10;18.83;;;;;;;14.20;48.75;101992.69;4918322;29;20032;-64
2024/02/28 08:49:53;;;;;;;53.38;18.33;;;;;;;14.43;48.29;101998.94;4918225;29;20044;-65
2024/02/28 08:52:19;;;;;;;46.97;18.80;;;;;;;14.60;48.56;101994.88;4927477;29;20044;-64
2024/02/28 08:54:44;;;;;;;52.38;19.10;;;;;;;14.55;48.08;101998.78;4937106;29;20385;-64
2024/02/28 08:57:10;;;;;;;43.53;17.77;;;;;;;14.45;47.90;102007.75;4937042;29;20418;-64
2024/02/28 08:59:35;;;;;;;49.00;18.05;;;;;;;14.38;48.72;102002.00;4921116;29;20067;-64
2024/02/28 09:02:00;;;;;;;51.60;18.55;;;;;;;14.33;47.90;102006.91;4921033;29;20032;-65
2024/02/28 09:04:26;;;;;;;55.65;18.98;;;;;;;14.22;49.11;102011.41;4936860;29;20046;-65
2024/02/28 09:06:53;;;;;;;51.13;17.92;;;;;;;14.13;48.50;102012.16;4938024;29;20494;-64
2024/02/28 09:09:18;;;;;;;46.88;17.38;;;;;;;14.02;48.78;102016.56;4936728;29;20039;-65
2024/02/28 09:11:43;;;;;;;49.67;17.88;;;;;;;13.90;48.81;102022.09;4937940;29;20028;-64
2024/02/28 09:14:09;;;;;;;52.42;17.52;;;;;;;13.84;49.43;102017.19;4937997;29;20040;-64
2024/02/28 09:16:34;;;;;;;48.38;16.67;;;;;;;13.79;48.26;102020.22;4936637;29;20487;-64
2024/02/28 09:18:59;;;;;;;45.60;16.80;;;;;;;13.80;48.41;102021.94;4936561;29;20067;-63
2024/02/28 09:21:25;;;;;;;41.15;15.52;;;;;;;13.89;48.10;102009.59;4937837;29;20035;-64
2024/02/28 09:23:50;;;;;;;46.42;16.73;;;;;;;13.92;48.41;102012.03;4937810;29;20058;-65
2024/02/28 09:26:15;;;;;;;43.67;16.25;;;;;;;14.06;49.44;102001.03;4936865;29;20047;-64
2024/02/28 09:28:41;;;;;;;39.40;15.75;;;;;;;14.15;48.89;102005.69;4920606;29;20035;-65
2024/02/28 09:31:06;;;;;;;39.92;15.05;;;;;;;14.20;48.21;102008.84;4920475;29;20422;-64
2024/02/28 09:33:32;;;;;;;41.38;15.32;;;;;;;14.28;47.53;102003.69;4937688;29;20122;-64
2024/02/28 09:35:57;;;;;;;35.60;13.40;;;;;;;14.26;48.50;102002.13;4920555;29;20035;-65
2024/02/28 09:38:23;;;;;;;36.10;13.88;;;;;;;14.22;47.45;102001.50;4919735;29;20036;-65
2024/02/28 09:40:48;;;;;;;37.35;13.88;;;;;;;14.18;49.04;102005.41;4936067;29;20058;-64
2024/02/28 09:43:19;;;;;;;42.03;15.77;;;;;;;14.36;47.53;102006.66;4939303;29;20499;-64
2024/02/28 09:45:45;;;;;;;40.15;13.32;;;;;;;14.68;47.69;102003.16;4938209;29;20395;-65
2024/02/28 09:48:10;;;;;;;41.97;14.50;;;;;;;14.85;48.08;102005.34;4922525;28;20024;-65
2024/02/28 09:50:36;;;;;;;35.28;13.60;;;;;;;14.95;46.94;102000.88;4937466;29;20030;-64
2024/02/28 09:53:01;;;;;;;34.53;13.32;;;;;;;15.02;48.02;102002.06;4936588;29;20164;-64
2024/02/28 09:55:26;;;;;;;34.85;14.60;;;;;;;15.32;47.59;101994.06;4936062;29;20027;-64
2024/02/28 09:57:52;;;;;;;33.10;13.13;;;;;;;15.81;45.89;101990.69;4937161;29;20027;-65
2024/02/28 10:00:20;;;;;;;34.10;13.55;;;;;;;16.26;46.17;101983.94;4920093;29;20042;-65
2024/02/28 10:02:47;;;;;;;40.30;12.57;;;;;;;16.39;46.67;101983.66;4937114;29;20020;-65
2024/02/28 10:05:13;;;;;;;32.85;11.98;;;;;;;16.37;46.25;101977.53;4920007;29;20019;-65
2024/02/28 10:07:39;;;;;;;28.63;10.32;;;;;;;16.48;46.47;101980.13;4935764;29;20012;-64
2024/02/28 10:10:07;;;;;;;31.38;11.60;;;;;;;16.62;46.52;101981.63;4935810;29;20051;-64
2024/02/28 10:12:33;;;;;;;31.75;12.07;;;;;;;16.72;46.48;101988.75;4935638;29;20051;-64
2024/02/28 10:15:00;;;;;;;28.75;12.65;;;;;;;16.72;46.62;101994.16;4936957;29;20028;-64
2024/02/28 10:17:25;;;;;;;30.38;11.02;;;;;;;16.65;46.60;101993.03;4919775;29;20039;-63
2024/02/28 10:19:52;;;;;;;23.20;10.18;;;;;;;16.74;46.73;101997.59;4935615;29;20119;-64
2024/02/28 10:22:17;;;;;;;31.00;10.93;;;;;;;16.92;45.71;101994.19;4937020;29;20042;-64
2024/02/28 10:24:42;;;;;;;30.75;10.77;;;;;;;17.18;45.70;101995.31;4935748;29;20032;-63
2024/02/28 10:27:08;;;;;;;36.78;11.88;;;;;;;17.11;45.34;102002.31;4935550;29;20031;-64
2024/02/28 10:29:33;;;;;;;29.98;12.43;;;;;;;17.00;45.60;102007.88;4919598;28;20043;-64
2024/02/28 10:32:00;;;;;;;30.85;10.85;;;;;;;17.23;45.00;102003.88;4919437;29;20516;-64
2024/02/28 10:34:25;;;;;;;25.98;12.25;;;;;;;17.33;45.59;101989.34;4935306;29;20098;-64
2024/02/28 10:36:51;;;;;;;34.05;12.45;;;;;;;17.72;45.18;102006.41;4919327;29;20036;-65
2024/02/28 10:39:17;;;;;;;25.63;10.48;;;;;;;18.24;44.37;101995.94;4935470;29;20046;-64
2024/02/28 10:41:43;;;;;;;25.00;12.18;;;;;;;18.85;43.74;101988.88;4935413;29;20624;-65
2024/02/28 10:44:12;;;;;;;29.27;11.63;;;;;;;19.49;42.82;101991.31;4934993;29;20040;-65
2024/02/28 10:46:38;;;;;;;34.30;10.63;;;;;;;19.57;42.87;101993.28;4935167;29;20059;-64
2024/02/28 10:49:05;;;;;;;25.60;10.98;;;;;;;19.80;43.04;101988.97;4935068;29;20028;-65
2024/02/28 10:51:36;;;;;;;25.65;11.18;;;;;;;20.25;42.20;101996.91;4919293;29;20114;-65
2024/02/28 10:54:11;;;;;;;21.70;10.07;;;;;;;20.41;42.26;101993.41;4935124;29;20036;-65
2024/02/28 10:56:37;;;;;;;24.33;10.73;;;;;;;20.38;42.31;101985.59;4934850;29;20162;-64
2024/02/28 10:59:03;;;;;;;30.02;10.13;;;;;;;20.79;42.02;101995.56;4934812;29;20396;-64
2024/02/28 11:01:29;;;;;;;28.73;11.40;;;;;;;21.18;41.78;101987.63;4934814;29;20032;-64